sensor_id;sensor_type;location;lat;lon;timestamp;P1;durP1;ratioP1;P2;durP2;ratioP2
25263;SDS011;13211;51.796;5.808;2023-06-14T00:06:55;7.88;;;3.30;;
25263;SDS011;13211;51.796;5.808;2023-06-14T00:09:23;7.28;;;2.97;;
25263;SDS011;13211;51.796;5.808;2023-06-14T00:11:51;5.07;;;3.20;;
25263;SDS011;13211;51.796;5.808;2023-06-14T00:14:19;7.32;;;3.22;;
25263;SDS011;13211;51.796;5.808;2023-06-14T00:16:48;7.05;;;3.10;;
25263;SDS011;13211;51.796;5.808;2023-06-14T00:19:16;5.07;;;3.05;;
25263;SDS011;13211;51.796;5.808;2023-06-14T00:21:44;8.88;;;3.22;;
25263;SDS011;13211;51.796;5.808;2023-06-14T00:24:13;6.40;;;3.00;;
25263;SDS011;13211;51.796;5.808;2023-06-14T00:26:42;26.52;;;3.80;;
25263;SDS011;13211;51.796;5.808;2023-06-14T00:29:10;12.23;;;3.40;;
25263;SDS011;13211;51.796;5.808;2023-06-14T00:31:38;7.63;;;3.47;;
25263;SDS011;13211;51.796;5.808;2023-06-14T00:34:06;6.88;;;3.20;;
25263;SDS011;13211;51.796;5.808;2023-06-14T00:36:40;7.47;;;3.05;;
25263;SDS011;13211;51.796;5.808;2023-06-14T00:39:08;11.23;;;3.55;;
25263;SDS011;13211;51.796;5.808;2023-06-14T00:41:36;5.97;;;3.10;;
25263;SDS011;13211;51.796;5.808;2023-06-14T00:44:04;8.38;;;3.35;;
25263;SDS011;13211;51.796;5.808;2023-06-14T00:46:33;7.60;;;3.40;;
25263;SDS011;13211;51.796;5.808;2023-06-14T00:49:01;7.90;;;3.33;;
25263;SDS011;13211;51.796;5.808;2023-06-14T00:51:29;8.68;;;3.00;;
25263;SDS011;13211;51.796;5.808;2023-06-14T00:53:58;6.03;;;3.60;;
25263;SDS011;13211;51.796;5.808;2023-06-14T00:56:27;6.75;;;2.97;;
25263;SDS011;13211;51.796;5.808;2023-06-14T00:58:55;9.40;;;3.20;;
25263;SDS011;13211;51.796;5.808;2023-06-14T01:01:23;7.75;;;3.15;;
25263;SDS011;13211;51.796;5.808;2023-06-14T01:03:51;10.93;;;3.38;;
25263;SDS011;13211;51.796;5.808;2023-06-14T01:09:14;9.93;;;3.42;;
25263;SDS011;13211;51.796;5.808;2023-06-14T01:11:58;7.78;;;3.28;;
25263;SDS011;13211;51.796;5.808;2023-06-14T01:14:28;9.23;;;3.50;;
25263;SDS011;13211;51.796;5.808;2023-06-14T01:17:04;11.55;;;3.30;;
25263;SDS011;13211;51.796;5.808;2023-06-14T01:19:32;9.02;;;3.40;;
25263;SDS011;13211;51.796;5.808;2023-06-14T01:22:00;10.43;;;2.85;;
25263;SDS011;13211;51.796;5.808;2023-06-14T01:24:28;7.25;;;2.80;;
25263;SDS011;13211;51.796;5.808;2023-06-14T01:26:59;10.52;;;3.47;;
25263;SDS011;13211;51.796;5.808;2023-06-14T01:29:28;5.93;;;2.70;;
25263;SDS011;13211;51.796;5.808;2023-06-14T01:31:59;8.98;;;2.88;;
25263;SDS011;13211;51.796;5.808;2023-06-14T01:34:29;7.82;;;3.30;;
25263;SDS011;13211;51.796;5.808;2023-06-14T01:37:16;9.23;;;3.67;;
25263;SDS011;13211;51.796;5.808;2023-06-14T01:39:44;7.63;;;2.90;;
25263;SDS011;13211;51.796;5.808;2023-06-14T01:42:13;16.40;;;2.92;;
25263;SDS011;13211;51.796;5.808;2023-06-14T01:44:42;5.35;;;2.95;;
25263;SDS011;13211;51.796;5.808;2023-06-14T01:47:12;8.32;;;2.83;;
25263;SDS011;13211;51.796;5.808;2023-06-14T01:49:44;9.18;;;3.15;;
25263;SDS011;13211;51.796;5.808;2023-06-14T01:52:14;6.72;;;3.33;;
25263;SDS011;13211;51.796;5.808;2023-06-14T01:54:42;5.80;;;3.13;;
25263;SDS011;13211;51.796;5.808;2023-06-14T01:57:12;7.75;;;3.42;;
25263;SDS011;13211;51.796;5.808;2023-06-14T01:59:42;7.03;;;3.00;;
25263;SDS011;13211;51.796;5.808;2023-06-14T02:02:16;6.60;;;2.65;;
25263;SDS011;13211;51.796;5.808;2023-06-14T02:04:44;8.35;;;3.58;;
25263;SDS011;13211;51.796;5.808;2023-06-14T02:07:15;10.63;;;2.90;;
25263;SDS011;13211;51.796;5.808;2023-06-14T02:09:42;7.20;;;3.30;;
25263;SDS011;13211;51.796;5.808;2023-06-14T02:12:11;8.95;;;2.90;;
25263;SDS011;13211;51.796;5.808;2023-06-14T02:14:41;5.85;;;2.90;;
25263;SDS011;13211;51.796;5.808;2023-06-14T02:17:11;6.18;;;2.92;;
25263;SDS011;13211;51.796;5.808;2023-06-14T02:19:40;5.82;;;3.05;;
25263;SDS011;13211;51.796;5.808;2023-06-14T02:22:09;8.68;;;2.85;;
25263;SDS011;13211;51.796;5.808;2023-06-14T02:24:38;7.50;;;3.20;;
25263;SDS011;13211;51.796;5.808;2023-06-14T02:27:07;6.40;;;2.88;;
25263;SDS011;13211;51.796;5.808;2023-06-14T02:29:36;6.32;;;3.03;;
25263;SDS011;13211;51.796;5.808;2023-06-14T02:32:05;7.57;;;3.25;;
25263;SDS011;13211;51.796;5.808;2023-06-14T02:34:34;5.55;;;3.00;;
25263;SDS011;13211;51.796;5.808;2023-06-14T02:37:05;7.93;;;3.50;;
25263;SDS011;13211;51.796;5.808;2023-06-14T02:39:33;5.05;;;3.00;;
25263;SDS011;13211;51.796;5.808;2023-06-14T02:44:31;7.55;;;2.85;;
25263;SDS011;13211;51.796;5.808;2023-06-14T02:46:59;6.60;;;3.00;;
25263;SDS011;13211;51.796;5.808;2023-06-14T02:49:27;5.80;;;2.90;;
25263;SDS011;13211;51.796;5.808;2023-06-14T02:51:56;7.50;;;3.15;;
25263;SDS011;13211;51.796;5.808;2023-06-14T02:54:24;7.53;;;2.85;;
25263;SDS011;13211;51.796;5.808;2023-06-14T02:56:52;10.05;;;3.00;;
25263;SDS011;13211;51.796;5.808;2023-06-14T02:59:21;6.20;;;3.15;;
25263;SDS011;13211;51.796;5.808;2023-06-14T03:01:54;10.00;;;3.00;;
25263;SDS011;13211;51.796;5.808;2023-06-14T03:04:30;12.00;;;3.13;;
25263;SDS011;13211;51.796;5.808;2023-06-14T03:07:12;8.05;;;2.80;;
25263;SDS011;13211;51.796;5.808;2023-06-14T03:09:50;6.00;;;2.78;;
25263;SDS011;13211;51.796;5.808;2023-06-14T03:12:26;10.68;;;3.17;;
25263;SDS011;13211;51.796;5.808;2023-06-14T03:14:55;7.68;;;2.80;;
25263;SDS011;13211;51.796;5.808;2023-06-14T03:17:25;4.82;;;3.10;;
25263;SDS011;13211;51.796;5.808;2023-06-14T03:19:59;8.65;;;2.95;;
25263;SDS011;13211;51.796;5.808;2023-06-14T03:22:28;8.85;;;3.30;;
25263;SDS011;13211;51.796;5.808;2023-06-14T03:24:58;6.82;;;2.97;;
25263;SDS011;13211;51.796;5.808;2023-06-14T03:27:30;6.65;;;3.00;;
25263;SDS011;13211;51.796;5.808;2023-06-14T03:29:59;6.35;;;2.70;;
25263;SDS011;13211;51.796;5.808;2023-06-14T03:32:28;6.10;;;2.55;;
25263;SDS011;13211;51.796;5.808;2023-06-14T03:35:01;12.82;;;2.80;;
25263;SDS011;13211;51.796;5.808;2023-06-14T03:37:29;10.38;;;2.55;;
25263;SDS011;13211;51.796;5.808;2023-06-14T03:39:59;4.68;;;2.75;;
25263;SDS011;13211;51.796;5.808;2023-06-14T03:42:33;8.23;;;2.97;;
25263;SDS011;13211;51.796;5.808;2023-06-14T03:45:03;5.50;;;2.53;;
25263;SDS011;13211;51.796;5.808;2023-06-14T03:47:31;8.07;;;3.13;;
25263;SDS011;13211;51.796;5.808;2023-06-14T03:49:59;5.82;;;3.10;;
25263;SDS011;13211;51.796;5.808;2023-06-14T03:52:30;9.93;;;2.97;;
25263;SDS011;13211;51.796;5.808;2023-06-14T03:54:58;8.40;;;2.92;;
25263;SDS011;13211;51.796;5.808;2023-06-14T03:57:36;5.68;;;2.92;;
25263;SDS011;13211;51.796;5.808;2023-06-14T04:00:09;14.68;;;3.38;;
25263;SDS011;13211;51.796;5.808;2023-06-14T04:02:45;5.10;;;3.00;;
25263;SDS011;13211;51.796;5.808;2023-06-14T04:05:14;14.43;;;2.90;;
25263;SDS011;13211;51.796;5.808;2023-06-14T04:07:48;10.35;;;3.35;;
25263;SDS011;13211;51.796;5.808;2023-06-14T04:10:18;6.50;;;2.70;;
25263;SDS011;13211;51.796;5.808;2023-06-14T04:12:47;4.43;;;2.73;;
25263;SDS011;13211;51.796;5.808;2023-06-14T04:15:16;6.63;;;3.00;;
25263;SDS011;13211;51.796;5.808;2023-06-14T04:17:48;5.18;;;2.65;;
25263;SDS011;13211;51.796;5.808;2023-06-14T04:20:16;4.80;;;2.63;;
25263;SDS011;13211;51.796;5.808;2023-06-14T04:22:46;11.70;;;2.97;;
25263;SDS011;13211;51.796;5.808;2023-06-14T04:25:15;7.38;;;3.00;;
25263;SDS011;13211;51.796;5.808;2023-06-14T04:27:50;9.35;;;3.03;;
25263;SDS011;13211;51.796;5.808;2023-06-14T04:30:20;10.40;;;2.90;;
25263;SDS011;13211;51.796;5.808;2023-06-14T04:32:54;4.90;;;2.90;;
25263;SDS011;13211;51.796;5.808;2023-06-14T04:35:22;4.60;;;2.40;;
25263;SDS011;13211;51.796;5.808;2023-06-14T04:37:52;13.68;;;2.88;;
25263;SDS011;13211;51.796;5.808;2023-06-14T04:40:21;10.70;;;3.17;;
25263;SDS011;13211;51.796;5.808;2023-06-14T04:42:49;10.07;;;3.30;;
25263;SDS011;13211;51.796;5.808;2023-06-14T04:45:18;5.45;;;3.10;;
25263;SDS011;13211;51.796;5.808;2023-06-14T04:47:46;13.98;;;3.33;;
25263;SDS011;13211;51.796;5.808;2023-06-14T04:50:15;10.95;;;3.35;;
25263;SDS011;13211;51.796;5.808;2023-06-14T04:52:44;7.68;;;3.40;;
25263;SDS011;13211;51.796;5.808;2023-06-14T04:55:19;6.68;;;2.97;;
25263;SDS011;13211;51.796;5.808;2023-06-14T04:57:47;10.55;;;3.35;;
25263;SDS011;13211;51.796;5.808;2023-06-14T05:00:15;5.00;;;2.85;;
25263;SDS011;13211;51.796;5.808;2023-06-14T05:02:44;10.43;;;3.03;;
25263;SDS011;13211;51.796;5.808;2023-06-14T05:05:15;9.68;;;2.97;;
25263;SDS011;13211;51.796;5.808;2023-06-14T05:07:44;11.98;;;2.80;;
25263;SDS011;13211;51.796;5.808;2023-06-14T05:10:14;10.13;;;2.75;;
25263;SDS011;13211;51.796;5.808;2023-06-14T05:12:42;8.25;;;2.55;;
25263;SDS011;13211;51.796;5.808;2023-06-14T05:15:12;6.63;;;2.80;;
25263;SDS011;13211;51.796;5.808;2023-06-14T05:17:42;6.50;;;2.72;;
25263;SDS011;13211;51.796;5.808;2023-06-14T05:20:22;12.95;;;3.55;;
25263;SDS011;13211;51.796;5.808;2023-06-14T05:22:54;8.73;;;3.13;;
25263;SDS011;13211;51.796;5.808;2023-06-14T05:25:23;10.10;;;3.13;;
25263;SDS011;13211;51.796;5.808;2023-06-14T05:27:52;8.10;;;3.17;;
25263;SDS011;13211;51.796;5.808;2023-06-14T05:30:20;6.97;;;2.90;;
25263;SDS011;13211;51.796;5.808;2023-06-14T05:32:49;7.05;;;3.10;;
25263;SDS011;13211;51.796;5.808;2023-06-14T05:35:19;15.48;;;3.45;;
25263;SDS011;13211;51.796;5.808;2023-06-14T05:37:49;13.65;;;3.05;;
25263;SDS011;13211;51.796;5.808;2023-06-14T05:40:18;8.60;;;3.00;;
25263;SDS011;13211;51.796;5.808;2023-06-14T05:42:46;5.78;;;2.83;;
25263;SDS011;13211;51.796;5.808;2023-06-14T05:45:18;11.95;;;3.50;;
25263;SDS011;13211;51.796;5.808;2023-06-14T05:47:45;9.75;;;3.20;;
25263;SDS011;13211;51.796;5.808;2023-06-14T05:50:14;6.90;;;3.10;;
25263;SDS011;13211;51.796;5.808;2023-06-14T05:52:46;6.25;;;2.75;;
25263;SDS011;13211;51.796;5.808;2023-06-14T05:55:16;7.47;;;2.78;;
25263;SDS011;13211;51.796;5.808;2023-06-14T05:57:49;6.13;;;3.15;;
25263;SDS011;13211;51.796;5.808;2023-06-14T06:00:16;8.63;;;2.85;;
25263;SDS011;13211;51.796;5.808;2023-06-14T06:02:46;9.40;;;3.23;;
25263;SDS011;13211;51.796;5.808;2023-06-14T06:05:14;8.68;;;2.58;;
25263;SDS011;13211;51.796;5.808;2023-06-14T06:07:44;15.07;;;3.05;;
25263;SDS011;13211;51.796;5.808;2023-06-14T06:10:12;4.32;;;2.60;;
25263;SDS011;13211;51.796;5.808;2023-06-14T06:12:42;8.60;;;3.28;;
25263;SDS011;13211;51.796;5.808;2023-06-14T06:15:22;8.25;;;3.20;;
25263;SDS011;13211;51.796;5.808;2023-06-14T06:17:49;6.70;;;3.13;;
25263;SDS011;13211;51.796;5.808;2023-06-14T06:20:23;6.13;;;3.03;;
25263;SDS011;13211;51.796;5.808;2023-06-14T06:22:59;5.70;;;2.83;;
25263;SDS011;13211;51.796;5.808;2023-06-14T06:25:28;4.57;;;2.67;;
25263;SDS011;13211;51.796;5.808;2023-06-14T06:27:58;7.88;;;2.58;;
25263;SDS011;13211;51.796;5.808;2023-06-14T06:30:26;10.38;;;3.55;;
25263;SDS011;13211;51.796;5.808;2023-06-14T06:32:54;10.13;;;2.97;;
25263;SDS011;13211;51.796;5.808;2023-06-14T06:35:25;10.68;;;2.83;;
25263;SDS011;13211;51.796;5.808;2023-06-14T06:37:52;9.13;;;3.20;;
25263;SDS011;13211;51.796;5.808;2023-06-14T06:40:20;6.30;;;2.95;;
25263;SDS011;13211;51.796;5.808;2023-06-14T06:42:48;11.18;;;2.50;;
25263;SDS011;13211;51.796;5.808;2023-06-14T06:45:19;7.45;;;2.85;;
25263;SDS011;13211;51.796;5.808;2023-06-14T06:47:51;11.15;;;2.85;;
25263;SDS011;13211;51.796;5.808;2023-06-14T06:50:19;6.38;;;2.90;;
25263;SDS011;13211;51.796;5.808;2023-06-14T06:52:49;8.90;;;3.70;;
25263;SDS011;13211;51.796;5.808;2023-06-14T06:55:16;9.00;;;3.25;;
25263;SDS011;13211;51.796;5.808;2023-06-14T06:57:45;6.60;;;3.00;;
25263;SDS011;13211;51.796;5.808;2023-06-14T07:00:13;7.28;;;2.67;;
25263;SDS011;13211;51.796;5.808;2023-06-14T07:02:42;7.88;;;2.85;;
25263;SDS011;13211;51.796;5.808;2023-06-14T07:05:15;7.70;;;2.63;;
25263;SDS011;13211;51.796;5.808;2023-06-14T07:07:44;7.25;;;2.80;;
25263;SDS011;13211;51.796;5.808;2023-06-14T07:10:12;6.97;;;3.08;;
25263;SDS011;13211;51.796;5.808;2023-06-14T07:12:41;4.65;;;2.53;;
25263;SDS011;13211;51.796;5.808;2023-06-14T07:15:10;6.70;;;2.75;;
25263;SDS011;13211;51.796;5.808;2023-06-14T07:17:38;12.50;;;3.08;;
25263;SDS011;13211;51.796;5.808;2023-06-14T07:20:07;5.85;;;2.67;;
25263;SDS011;13211;51.796;5.808;2023-06-14T07:22:40;8.02;;;2.40;;
25263;SDS011;13211;51.796;5.808;2023-06-14T07:25:10;7.22;;;2.55;;
25263;SDS011;13211;51.796;5.808;2023-06-14T07:27:46;5.15;;;2.42;;
25263;SDS011;13211;51.796;5.808;2023-06-14T07:30:14;8.13;;;2.45;;
25263;SDS011;13211;51.796;5.808;2023-06-14T07:32:42;4.10;;;2.47;;
25263;SDS011;13211;51.796;5.808;2023-06-14T07:35:11;10.52;;;2.30;;
25263;SDS011;13211;51.796;5.808;2023-06-14T07:37:40;7.25;;;2.35;;
25263;SDS011;13211;51.796;5.808;2023-06-14T07:40:10;12.68;;;2.47;;
25263;SDS011;13211;51.796;5.808;2023-06-14T07:42:42;6.75;;;2.60;;
25263;SDS011;13211;51.796;5.808;2023-06-14T07:45:15;8.48;;;2.22;;
25263;SDS011;13211;51.796;5.808;2023-06-14T07:47:44;5.10;;;2.15;;
25263;SDS011;13211;51.796;5.808;2023-06-14T07:50:12;2.83;;;1.95;;
25263;SDS011;13211;51.796;5.808;2023-06-14T07:52:46;9.55;;;2.35;;
25263;SDS011;13211;51.796;5.808;2023-06-14T07:55:15;6.28;;;1.90;;
25263;SDS011;13211;51.796;5.808;2023-06-14T07:57:46;11.43;;;2.05;;
25263;SDS011;13211;51.796;5.808;2023-06-14T08:00:15;5.75;;;1.38;;
25263;SDS011;13211;51.796;5.808;2023-06-14T08:02:53;3.53;;;1.42;;
25263;SDS011;13211;51.796;5.808;2023-06-14T08:05:27;3.40;;;1.50;;
25263;SDS011;13211;51.796;5.808;2023-06-14T08:07:55;4.93;;;1.70;;
25263;SDS011;13211;51.796;5.808;2023-06-14T08:10:23;3.38;;;1.33;;
25263;SDS011;13211;51.796;5.808;2023-06-14T08:12:51;4.20;;;1.35;;
25263;SDS011;13211;51.796;5.808;2023-06-14T08:15:19;2.85;;;1.30;;
25263;SDS011;13211;51.796;5.808;2023-06-14T08:17:47;4.45;;;1.02;;
25263;SDS011;13211;51.796;5.808;2023-06-14T08:20:22;2.47;;;1.17;;
25263;SDS011;13211;51.796;5.808;2023-06-14T08:22:51;2.47;;;0.98;;
25263;SDS011;13211;51.796;5.808;2023-06-14T08:25:22;2.13;;;1.30;;
25263;SDS011;13211;51.796;5.808;2023-06-14T08:27:50;4.22;;;1.30;;
25263;SDS011;13211;51.796;5.808;2023-06-14T08:30:20;9.52;;;1.35;;
25263;SDS011;13211;51.796;5.808;2023-06-14T08:32:47;2.20;;;1.00;;
25263;SDS011;13211;51.796;5.808;2023-06-14T08:35:27;1.52;;;1.20;;
25263;SDS011;13211;51.796;5.808;2023-06-14T08:37:56;2.30;;;1.40;;
25263;SDS011;13211;51.796;5.808;2023-06-14T08:40:23;2.65;;;1.20;;
25263;SDS011;13211;51.796;5.808;2023-06-14T08:42:53;3.20;;;1.10;;
25263;SDS011;13211;51.796;5.808;2023-06-14T08:45:22;3.88;;;1.25;;
25263;SDS011;13211;51.796;5.808;2023-06-14T08:47:53;9.30;;;1.33;;
25263;SDS011;13211;51.796;5.808;2023-06-14T08:50:27;7.35;;;1.20;;
25263;SDS011;13211;51.796;5.808;2023-06-14T08:53:04;1.75;;;1.30;;
25263;SDS011;13211;51.796;5.808;2023-06-14T08:55:37;3.95;;;1.45;;
25263;SDS011;13211;51.796;5.808;2023-06-14T08:58:14;6.00;;;1.58;;
25263;SDS011;13211;51.796;5.808;2023-06-14T09:00:42;3.40;;;1.35;;
25263;SDS011;13211;51.796;5.808;2023-06-14T09:03:11;6.00;;;1.50;;
25263;SDS011;13211;51.796;5.808;2023-06-14T09:05:44;2.50;;;1.55;;
25263;SDS011;13211;51.796;5.808;2023-06-14T09:08:14;4.82;;;1.58;;
25263;SDS011;13211;51.796;5.808;2023-06-14T09:10:44;6.18;;;1.50;;
25263;SDS011;13211;51.796;5.808;2023-06-14T09:13:12;3.17;;;1.20;;
25263;SDS011;13211;51.796;5.808;2023-06-14T09:15:41;2.60;;;1.45;;
25263;SDS011;13211;51.796;5.808;2023-06-14T09:20:40;2.25;;;1.42;;
25263;SDS011;13211;51.796;5.808;2023-06-14T09:23:09;4.97;;;1.50;;
25263;SDS011;13211;51.796;5.808;2023-06-14T09:25:45;10.95;;;1.75;;
25263;SDS011;13211;51.796;5.808;2023-06-14T09:28:16;2.67;;;1.20;;
25263;SDS011;13211;51.796;5.808;2023-06-14T09:30:44;2.88;;;1.40;;
25263;SDS011;13211;51.796;5.808;2023-06-14T09:33:16;3.35;;;1.50;;
25263;SDS011;13211;51.796;5.808;2023-06-14T09:35:46;5.05;;;1.50;;
25263;SDS011;13211;51.796;5.808;2023-06-14T09:38:16;3.13;;;1.58;;
25263;SDS011;13211;51.796;5.808;2023-06-14T09:40:49;2.65;;;1.38;;
25263;SDS011;13211;51.796;5.808;2023-06-14T09:43:20;4.15;;;1.50;;
25263;SDS011;13211;51.796;5.808;2023-06-14T09:45:49;1.70;;;1.15;;
25263;SDS011;13211;51.796;5.808;2023-06-14T09:48:18;5.53;;;1.88;;
25263;SDS011;13211;51.796;5.808;2023-06-14T09:50:46;3.55;;;1.20;;
25263;SDS011;13211;51.796;5.808;2023-06-14T09:53:15;4.20;;;1.50;;
25263;SDS011;13211;51.796;5.808;2023-06-14T09:55:45;10.60;;;1.40;;
25263;SDS011;13211;51.796;5.808;2023-06-14T09:58:14;3.10;;;1.38;;
25263;SDS011;13211;51.796;5.808;2023-06-14T10:00:47;4.10;;;1.38;;
25263;SDS011;13211;51.796;5.808;2023-06-14T10:03:21;3.35;;;1.45;;
25263;SDS011;13211;51.796;5.808;2023-06-14T10:05:49;2.25;;;1.50;;
25263;SDS011;13211;51.796;5.808;2023-06-14T10:08:19;2.67;;;1.10;;
25263;SDS011;13211;51.796;5.808;2023-06-14T10:10:47;2.75;;;1.20;;
25263;SDS011;13211;51.796;5.808;2023-06-14T10:13:15;7.18;;;1.90;;
25263;SDS011;13211;51.796;5.808;2023-06-14T10:23:37;4.35;;;1.63;;
25263;SDS011;13211;51.796;5.808;2023-06-14T10:26:18;2.72;;;1.40;;
25263;SDS011;13211;51.796;5.808;2023-06-14T10:29:00;3.30;;;1.10;;
25263;SDS011;13211;51.796;5.808;2023-06-14T10:31:41;3.95;;;1.20;;
25263;SDS011;13211;51.796;5.808;2023-06-14T10:34:11;4.85;;;1.23;;
25263;SDS011;13211;51.796;5.808;2023-06-14T10:36:42;4.65;;;1.50;;
25263;SDS011;13211;51.796;5.808;2023-06-14T10:41:50;5.75;;;1.60;;
25263;SDS011;13211;51.796;5.808;2023-06-14T10:46:54;1.88;;;1.20;;
25263;SDS011;13211;51.796;5.808;2023-06-14T10:49:55;2.97;;;1.10;;
25263;SDS011;13211;51.796;5.808;2023-06-14T10:52:20;2.83;;;1.40;;
25263;SDS011;13211;51.796;5.808;2023-06-14T10:54:55;3.97;;;1.10;;
25263;SDS011;13211;51.796;5.808;2023-06-14T10:57:23;3.85;;;1.10;;
25263;SDS011;13211;51.796;5.808;2023-06-14T10:59:54;2.90;;;1.02;;
25263;SDS011;13211;51.796;5.808;2023-06-14T11:04:56;9.70;;;1.40;;
25263;SDS011;13211;51.796;5.808;2023-06-14T11:10:26;4.65;;;1.33;;
25263;SDS011;13211;51.796;5.808;2023-06-14T11:13:05;3.63;;;1.52;;
25263;SDS011;13211;51.796;5.808;2023-06-14T11:15:35;6.03;;;1.02;;
25263;SDS011;13211;51.796;5.808;2023-06-14T11:18:04;2.67;;;1.33;;
25263;SDS011;13211;51.796;5.808;2023-06-14T11:20:34;1.85;;;1.10;;
25263;SDS011;13211;51.796;5.808;2023-06-14T11:23:02;3.77;;;1.10;;
25263;SDS011;13211;51.796;5.808;2023-06-14T11:25:31;4.57;;;1.20;;
25263;SDS011;13211;51.796;5.808;2023-06-14T11:27:59;2.78;;;1.33;;
25263;SDS011;13211;51.796;5.808;2023-06-14T11:30:27;6.70;;;1.08;;
25263;SDS011;13211;51.796;5.808;2023-06-14T11:32:57;2.78;;;1.33;;
25263;SDS011;13211;51.796;5.808;2023-06-14T11:35:25;3.55;;;1.17;;
25263;SDS011;13211;51.796;5.808;2023-06-14T11:37:57;5.93;;;1.45;;
25263;SDS011;13211;51.796;5.808;2023-06-14T11:40:26;2.13;;;1.35;;
25263;SDS011;13211;51.796;5.808;2023-06-14T11:42:58;2.28;;;1.25;;
25263;SDS011;13211;51.796;5.808;2023-06-14T11:45:27;5.97;;;1.38;;
25263;SDS011;13211;51.796;5.808;2023-06-14T11:47:57;2.80;;;1.30;;
25263;SDS011;13211;51.796;5.808;2023-06-14T11:50:26;2.45;;;1.42;;
25263;SDS011;13211;51.796;5.808;2023-06-14T11:52:58;2.13;;;1.30;;
25263;SDS011;13211;51.796;5.808;2023-06-14T11:55:37;1.60;;;1.00;;
25263;SDS011;13211;51.796;5.808;2023-06-14T11:58:06;3.83;;;1.40;;
25263;SDS011;13211;51.796;5.808;2023-06-14T12:00:45;5.43;;;1.35;;
25263;SDS011;13211;51.796;5.808;2023-06-14T12:03:16;5.78;;;1.33;;
25263;SDS011;13211;51.796;5.808;2023-06-14T12:05:45;1.73;;;1.13;;
25263;SDS011;13211;51.796;5.808;2023-06-14T12:08:12;3.90;;;1.50;;
25263;SDS011;13211;51.796;5.808;2023-06-14T12:10:44;2.22;;;1.42;;
25263;SDS011;13211;51.796;5.808;2023-06-14T12:13:16;5.38;;;1.50;;
25263;SDS011;13211;51.796;5.808;2023-06-14T12:15:53;9.98;;;1.55;;
25263;SDS011;13211;51.796;5.808;2023-06-14T12:18:24;2.15;;;1.13;;
25263;SDS011;13211;51.796;5.808;2023-06-14T12:21:00;5.88;;;1.40;;
25263;SDS011;13211;51.796;5.808;2023-06-14T12:24:05;5.65;;;1.10;;
25263;SDS011;13211;51.796;5.808;2023-06-14T12:26:26;2.40;;;1.27;;
25263;SDS011;13211;51.796;5.808;2023-06-14T12:28:54;3.88;;;1.40;;
25263;SDS011;13211;51.796;5.808;2023-06-14T12:31:22;2.80;;;1.00;;
25263;SDS011;13211;51.796;5.808;2023-06-14T12:33:52;3.63;;;1.30;;
25263;SDS011;13211;51.796;5.808;2023-06-14T12:36:20;2.22;;;1.20;;
25263;SDS011;13211;51.796;5.808;2023-06-14T12:38:47;2.90;;;1.00;;
25263;SDS011;13211;51.796;5.808;2023-06-14T12:41:16;3.42;;;1.20;;
25263;SDS011;13211;51.796;5.808;2023-06-14T12:43:48;2.38;;;1.23;;
25263;SDS011;13211;51.796;5.808;2023-06-14T12:46:16;4.40;;;1.10;;
25263;SDS011;13211;51.796;5.808;2023-06-14T12:48:45;2.70;;;1.02;;
25263;SDS011;13211;51.796;5.808;2023-06-14T12:51:12;4.68;;;1.00;;
25263;SDS011;13211;51.796;5.808;2023-06-14T12:53:45;3.70;;;1.20;;
25263;SDS011;13211;51.796;5.808;2023-06-14T12:56:22;2.40;;;1.00;;
25263;SDS011;13211;51.796;5.808;2023-06-14T12:58:53;4.15;;;1.13;;
25263;SDS011;13211;51.796;5.808;2023-06-14T13:01:21;2.50;;;1.08;;
25263;SDS011;13211;51.796;5.808;2023-06-14T13:03:48;4.72;;;1.23;;
25263;SDS011;13211;51.796;5.808;2023-06-14T13:06:18;5.68;;;1.20;;
25263;SDS011;13211;51.796;5.808;2023-06-14T13:08:47;3.30;;;1.13;;
25263;SDS011;13211;51.796;5.808;2023-06-14T13:11:17;3.85;;;1.00;;
25263;SDS011;13211;51.796;5.808;2023-06-14T13:13:47;2.30;;;0.90;;
25263;SDS011;13211;51.796;5.808;2023-06-14T13:16:15;5.35;;;0.80;;
25263;SDS011;13211;51.796;5.808;2023-06-14T13:18:45;3.17;;;0.80;;
25263;SDS011;13211;51.796;5.808;2023-06-14T13:23:41;2.90;;;0.80;;
25263;SDS011;13211;51.796;5.808;2023-06-14T13:26:14;5.55;;;0.90;;
25263;SDS011;13211;51.796;5.808;2023-06-14T13:28:45;6.85;;;1.10;;
25263;SDS011;13211;51.796;5.808;2023-06-14T13:31:17;1.88;;;0.90;;
25263;SDS011;13211;51.796;5.808;2023-06-14T13:33:45;3.95;;;0.77;;
25263;SDS011;13211;51.796;5.808;2023-06-14T13:36:14;3.30;;;0.80;;
25263;SDS011;13211;51.796;5.808;2023-06-14T13:38:49;4.13;;;0.60;;
25263;SDS011;13211;51.796;5.808;2023-06-14T13:41:19;2.05;;;0.88;;
25263;SDS011;13211;51.796;5.808;2023-06-14T13:43:49;4.75;;;0.70;;
25263;SDS011;13211;51.796;5.808;2023-06-14T13:46:17;1.33;;;0.73;;
25263;SDS011;13211;51.796;5.808;2023-06-14T13:48:47;2.95;;;0.80;;
25263;SDS011;13211;51.796;5.808;2023-06-14T13:51:26;2.92;;;0.63;;
25263;SDS011;13211;51.796;5.808;2023-06-14T13:53:54;1.08;;;0.70;;
25263;SDS011;13211;51.796;5.808;2023-06-14T13:56:23;3.35;;;0.68;;
25263;SDS011;13211;51.796;5.808;2023-06-14T13:58:51;2.15;;;0.70;;
25263;SDS011;13211;51.796;5.808;2023-06-14T14:01:22;5.55;;;0.95;;
25263;SDS011;13211;51.796;5.808;2023-06-14T14:03:54;2.75;;;0.80;;
25263;SDS011;13211;51.796;5.808;2023-06-14T14:06:25;1.85;;;0.60;;
25263;SDS011;13211;51.796;5.808;2023-06-14T14:08:54;5.78;;;0.70;;
25263;SDS011;13211;51.796;5.808;2023-06-14T14:11:32;2.53;;;0.73;;
25263;SDS011;13211;51.796;5.808;2023-06-14T14:14:00;1.73;;;0.82;;
25263;SDS011;13211;51.796;5.808;2023-06-14T14:16:30;2.60;;;0.85;;
25263;SDS011;13211;51.796;5.808;2023-06-14T14:18:58;3.58;;;1.52;;
25263;SDS011;13211;51.796;5.808;2023-06-14T14:21:26;1.98;;;0.75;;
25263;SDS011;13211;51.796;5.808;2023-06-14T14:23:54;1.83;;;0.98;;
25263;SDS011;13211;51.796;5.808;2023-06-14T14:26:23;4.53;;;0.60;;
25263;SDS011;13211;51.796;5.808;2023-06-14T14:28:53;1.45;;;0.98;;
25263;SDS011;13211;51.796;5.808;2023-06-14T14:31:21;3.10;;;1.17;;
25263;SDS011;13211;51.796;5.808;2023-06-14T14:33:52;3.97;;;0.90;;
25263;SDS011;13211;51.796;5.808;2023-06-14T14:36:20;3.58;;;0.90;;
25263;SDS011;13211;51.796;5.808;2023-06-14T14:38:48;2.78;;;0.70;;
25263;SDS011;13211;51.796;5.808;2023-06-14T14:41:15;1.63;;;0.85;;
25263;SDS011;13211;51.796;5.808;2023-06-14T14:43:45;2.78;;;0.70;;
25263;SDS011;13211;51.796;5.808;2023-06-14T14:46:12;2.22;;;0.90;;
25263;SDS011;13211;51.796;5.808;2023-06-14T14:48:45;1.35;;;0.73;;
25263;SDS011;13211;51.796;5.808;2023-06-14T14:53:41;1.92;;;0.95;;
25263;SDS011;13211;51.796;5.808;2023-06-14T14:58:40;2.42;;;0.85;;
25263;SDS011;13211;51.796;5.808;2023-06-14T15:01:07;4.18;;;0.85;;
25263;SDS011;13211;51.796;5.808;2023-06-14T15:03:36;6.32;;;1.45;;
25263;SDS011;13211;51.796;5.808;2023-06-14T15:06:24;2.08;;;0.90;;
25263;SDS011;13211;51.796;5.808;2023-06-14T15:08:52;1.60;;;0.60;;
25263;SDS011;13211;51.796;5.808;2023-06-14T15:11:20;3.70;;;0.80;;
25263;SDS011;13211;51.796;5.808;2023-06-14T15:13:48;5.75;;;1.10;;
25263;SDS011;13211;51.796;5.808;2023-06-14T15:16:17;3.22;;;0.80;;
25263;SDS011;13211;51.796;5.808;2023-06-14T15:18:45;8.75;;;0.90;;
25263;SDS011;13211;51.796;5.808;2023-06-14T15:21:15;3.97;;;0.80;;
25263;SDS011;13211;51.796;5.808;2023-06-14T15:23:45;1.67;;;0.80;;
25263;SDS011;13211;51.796;5.808;2023-06-14T15:26:15;1.08;;;0.80;;
25263;SDS011;13211;51.796;5.808;2023-06-14T15:28:47;2.58;;;0.80;;
25263;SDS011;13211;51.796;5.808;2023-06-14T15:31:16;2.28;;;1.10;;
25263;SDS011;13211;51.796;5.808;2023-06-14T15:33:45;1.45;;;0.93;;
25263;SDS011;13211;51.796;5.808;2023-06-14T15:36:12;3.75;;;0.80;;
25263;SDS011;13211;51.796;5.808;2023-06-14T15:38:59;3.60;;;0.98;;
25263;SDS011;13211;51.796;5.808;2023-06-14T15:41:27;2.08;;;1.00;;
25263;SDS011;13211;51.796;5.808;2023-06-14T15:43:54;1.00;;;0.80;;